sensor_id;sensor_type;location;lat;lon;timestamp;P1;durP1;ratioP1;P2;durP2;ratioP2
44824;SDS011;30542;47.928;2.138;2023-08-01T00:05:00;3.63;;;2.15;;
44824;SDS011;30542;47.928;2.138;2023-08-01T00:10:00;3.42;;;2.22;;
44824;SDS011;30542;47.928;2.138;2023-08-01T00:15:01;4.00;;;2.35;;
44824;SDS011;30542;47.928;2.138;2023-08-01T00:20:02;3.40;;;2.35;;
44824;SDS011;30542;47.928;2.138;2023-08-01T00:25:03;3.00;;;2.30;;
44824;SDS011;30542;47.928;2.138;2023-08-01T00:30:04;2.80;;;2.13;;
44824;SDS011;30542;47.928;2.138;2023-08-01T00:35:05;3.70;;;2.20;;
44824;SDS011;30542;47.928;2.138;2023-08-01T00:40:06;4.95;;;2.90;;
44824;SDS011;30542;47.928;2.138;2023-08-01T00:45:07;4.18;;;2.95;;
44824;SDS011;30542;47.928;2.138;2023-08-01T00:50:08;2.72;;;2.38;;
44824;SDS011;30542;47.928;2.138;2023-08-01T00:55:08;2.97;;;2.67;;
44824;SDS011;30542;47.928;2.138;2023-08-01T01:00:09;4.85;;;3.13;;
44824;SDS011;30542;47.928;2.138;2023-08-01T01:05:10;3.63;;;2.53;;
44824;SDS011;30542;47.928;2.138;2023-08-01T01:10:10;7.00;;;2.93;;
44824;SDS011;30542;47.928;2.138;2023-08-01T01:15:10;3.67;;;3.10;;
44824;SDS011;30542;47.928;2.138;2023-08-01T01:20:11;4.85;;;2.83;;
44824;SDS011;30542;47.928;2.138;2023-08-01T01:25:11;4.10;;;3.03;;
44824;SDS011;30542;47.928;2.138;2023-08-01T01:30:12;4.38;;;2.83;;
44824;SDS011;30542;47.928;2.138;2023-08-01T01:35:13;3.70;;;3.10;;
44824;SDS011;30542;47.928;2.138;2023-08-01T01:40:13;4.35;;;2.88;;
44824;SDS011;30542;47.928;2.138;2023-08-01T01:45:13;3.63;;;2.93;;
44824;SDS011;30542;47.928;2.138;2023-08-01T01:50:14;4.27;;;2.97;;
44824;SDS011;30542;47.928;2.138;2023-08-01T01:55:14;3.47;;;3.13;;
44824;SDS011;30542;47.928;2.138;2023-08-01T02:00:15;3.17;;;2.73;;
44824;SDS011;30542;47.928;2.138;2023-08-01T02:05:15;3.47;;;2.80;;
44824;SDS011;30542;47.928;2.138;2023-08-01T02:10:15;5.67;;;2.83;;
44824;SDS011;30542;47.928;2.138;2023-08-01T02:15:16;3.77;;;2.37;;
44824;SDS011;30542;47.928;2.138;2023-08-01T02:20:16;3.60;;;2.43;;
44824;SDS011;30542;47.928;2.138;2023-08-01T02:25:17;2.97;;;2.22;;
44824;SDS011;30542;47.928;2.138;2023-08-01T02:30:17;5.20;;;2.73;;
44824;SDS011;30542;47.928;2.138;2023-08-01T02:35:17;2.50;;;2.00;;
44824;SDS011;30542;47.928;2.138;2023-08-01T02:40:18;2.67;;;2.40;;
44824;SDS011;30542;47.928;2.138;2023-08-01T02:45:18;3.53;;;2.70;;
44824;SDS011;30542;47.928;2.138;2023-08-01T02:50:18;2.53;;;2.30;;
44824;SDS011;30542;47.928;2.138;2023-08-01T02:55:19;3.57;;;2.40;;
44824;SDS011;30542;47.928;2.138;2023-08-01T03:00:19;3.33;;;2.65;;
44824;SDS011;30542;47.928;2.138;2023-08-01T03:05:20;2.50;;;2.10;;
44824;SDS011;30542;47.928;2.138;2023-08-01T03:10:20;2.40;;;1.87;;
44824;SDS011;30542;47.928;2.138;2023-08-01T03:15:20;2.10;;;1.90;;
44824;SDS011;30542;47.928;2.138;2023-08-01T03:20:21;2.87;;;2.20;;
44824;SDS011;30542;47.928;2.138;2023-08-01T03:25:22;2.22;;;1.80;;
44824;SDS011;30542;47.928;2.138;2023-08-01T03:30:23;3.70;;;1.87;;
44824;SDS011;30542;47.928;2.138;2023-08-01T03:35:23;2.30;;;1.80;;
44824;SDS011;30542;47.928;2.138;2023-08-01T03:40:23;2.10;;;1.67;;
44824;SDS011;30542;47.928;2.138;2023-08-01T03:45:24;3.20;;;1.97;;
44824;SDS011;30542;47.928;2.138;2023-08-01T03:50:25;2.47;;;1.70;;
44824;SDS011;30542;47.928;2.138;2023-08-01T03:55:25;2.22;;;1.70;;
44824;SDS011;30542;47.928;2.138;2023-08-01T04:00:26;1.40;;;1.20;;
44824;SDS011;30542;47.928;2.138;2023-08-01T04:05:32;2.50;;;1.50;;
44824;SDS011;30542;47.928;2.138;2023-08-01T04:10:32;2.13;;;1.58;;
44824;SDS011;30542;47.928;2.138;2023-08-01T04:15:33;1.70;;;1.27;;
44824;SDS011;30542;47.928;2.138;2023-08-01T04:20:33;1.53;;;1.20;;
44824;SDS011;30542;47.928;2.138;2023-08-01T04:25:33;1.77;;;0.93;;
44824;SDS011;30542;47.928;2.138;2023-08-01T04:30:34;1.47;;;1.10;;
44824;SDS011;30542;47.928;2.138;2023-08-01T04:35:34;1.97;;;1.00;;
44824;SDS011;30542;47.928;2.138;2023-08-01T04:40:34;2.07;;;1.47;;
44824;SDS011;30542;47.928;2.138;2023-08-01T04:45:35;1.63;;;0.77;;
44824;SDS011;30542;47.928;2.138;2023-08-01T04:50:35;1.30;;;0.80;;
44824;SDS011;30542;47.928;2.138;2023-08-01T04:55:36;1.47;;;0.67;;
44824;SDS011;30542;47.928;2.138;2023-08-01T05:00:37;1.10;;;0.70;;
44824;SDS011;30542;47.928;2.138;2023-08-01T05:05:37;1.20;;;0.57;;
44824;SDS011;30542;47.928;2.138;2023-08-01T05:10:38;0.73;;;0.73;;
44824;SDS011;30542;47.928;2.138;2023-08-01T05:15:38;0.90;;;0.70;;
44824;SDS011;30542;47.928;2.138;2023-08-01T05:20:38;0.80;;;0.63;;
44824;SDS011;30542;47.928;2.138;2023-08-01T05:25:39;1.10;;;0.60;;
44824;SDS011;30542;47.928;2.138;2023-08-01T05:30:39;0.50;;;0.50;;
44824;SDS011;30542;47.928;2.138;2023-08-01T05:35:40;0.70;;;0.47;;
44824;SDS011;30542;47.928;2.138;2023-08-01T05:40:40;0.50;;;0.40;;
44824;SDS011;30542;47.928;2.138;2023-08-01T05:45:40;1.27;;;0.77;;
44824;SDS011;30542;47.928;2.138;2023-08-01T05:50:41;0.60;;;0.50;;
44824;SDS011;30542;47.928;2.138;2023-08-01T05:55:41;1.00;;;0.30;;
44824;SDS011;30542;47.928;2.138;2023-08-01T06:00:42;0.80;;;0.60;;
44824;SDS011;30542;47.928;2.138;2023-08-01T06:05:42;0.60;;;0.40;;
44824;SDS011;30542;47.928;2.138;2023-08-01T06:10:42;0.73;;;0.40;;
44824;SDS011;30542;47.928;2.138;2023-08-01T06:15:43;0.70;;;0.38;;
44824;SDS011;30542;47.928;2.138;2023-08-01T06:20:43;0.70;;;0.47;;
44824;SDS011;30542;47.928;2.138;2023-08-01T06:25:44;0.60;;;0.50;;
44824;SDS011;30542;47.928;2.138;2023-08-01T06:30:45;0.60;;;0.40;;
44824;SDS011;30542;47.928;2.138;2023-08-01T06:35:45;1.20;;;0.40;;
44824;SDS011;30542;47.928;2.138;2023-08-01T06:40:46;0.68;;;0.32;;
44824;SDS011;30542;47.928;2.138;2023-08-01T06:45:46;1.67;;;0.33;;
44824;SDS011;30542;47.928;2.138;2023-08-01T06:50:46;1.42;;;0.50;;
44824;SDS011;30542;47.928;2.138;2023-08-01T06:55:47;1.40;;;0.30;;
44824;SDS011;30542;47.928;2.138;2023-08-01T07:00:47;1.90;;;0.43;;
44824;SDS011;30542;47.928;2.138;2023-08-01T07:05:47;1.63;;;0.60;;
44824;SDS011;30542;47.928;2.138;2023-08-01T07:10:48;2.78;;;0.70;;
44824;SDS011;30542;47.928;2.138;2023-08-01T07:15:48;2.67;;;0.60;;
44824;SDS011;30542;47.928;2.138;2023-08-01T07:20:58;2.87;;;0.60;;
44824;SDS011;30542;47.928;2.138;2023-08-01T07:26:02;2.47;;;0.68;;
44824;SDS011;30542;47.928;2.138;2023-08-01T07:31:04;3.00;;;0.83;;
44824;SDS011;30542;47.928;2.138;2023-08-01T07:36:05;2.38;;;1.10;;
44824;SDS011;30542;47.928;2.138;2023-08-01T07:41:06;2.27;;;0.97;;
44824;SDS011;30542;47.928;2.138;2023-08-01T07:46:07;4.05;;;1.25;;
44824;SDS011;30542;47.928;2.138;2023-08-01T07:51:09;3.42;;;0.93;;
44824;SDS011;30542;47.928;2.138;2023-08-01T07:56:11;1.80;;;0.80;;
44824;SDS011;30542;47.928;2.138;2023-08-01T08:01:11;3.00;;;1.00;;
44824;SDS011;30542;47.928;2.138;2023-08-01T08:06:12;3.27;;;1.10;;
44824;SDS011;30542;47.928;2.138;2023-08-01T08:11:12;4.10;;;1.20;;
44824;SDS011;30542;47.928;2.138;2023-08-01T08:16:13;3.10;;;1.10;;
44824;SDS011;30542;47.928;2.138;2023-08-01T08:21:13;2.13;;;0.80;;
44824;SDS011;30542;47.928;2.138;2023-08-01T08:26:13;3.45;;;0.90;;
44824;SDS011;30542;47.928;2.138;2023-08-01T08:31:14;3.10;;;1.20;;
44824;SDS011;30542;47.928;2.138;2023-08-01T08:36:14;2.60;;;1.20;;
44824;SDS011;30542;47.928;2.138;2023-08-01T08:41:14;3.60;;;0.87;;
44824;SDS011;30542;47.928;2.138;2023-08-01T08:46:20;2.83;;;0.73;;
44824;SDS011;30542;47.928;2.138;2023-08-01T08:51:23;3.63;;;1.08;;
44824;SDS011;30542;47.928;2.138;2023-08-01T08:56:28;3.17;;;1.00;;
44824;SDS011;30542;47.928;2.138;2023-08-01T09:01:28;2.88;;;1.27;;
44824;SDS011;30542;47.928;2.138;2023-08-01T09:06:34;5.40;;;1.00;;
44824;SDS011;30542;47.928;2.138;2023-08-01T09:11:41;6.32;;;1.45;;
44824;SDS011;30542;47.928;2.138;2023-08-01T09:16:44;6.68;;;1.50;;
44824;SDS011;30542;47.928;2.138;2023-08-01T09:21:46;6.95;;;1.90;;
44824;SDS011;30542;47.928;2.138;2023-08-01T09:26:48;5.57;;;1.10;;
44824;SDS011;30542;47.928;2.138;2023-08-01T09:31:49;6.60;;;1.30;;
44824;SDS011;30542;47.928;2.138;2023-08-01T09:36:50;5.80;;;1.77;;
44824;SDS011;30542;47.928;2.138;2023-08-01T09:41:58;5.40;;;2.13;;
44824;SDS011;30542;47.928;2.138;2023-08-01T09:52:00;3.95;;;1.70;;
44824;SDS011;30542;47.928;2.138;2023-08-01T09:57:01;3.75;;;1.30;;
44824;SDS011;30542;47.928;2.138;2023-08-01T10:02:04;4.63;;;1.10;;
44824;SDS011;30542;47.928;2.138;2023-08-01T10:07:12;3.55;;;1.20;;
44824;SDS011;30542;47.928;2.138;2023-08-01T10:12:14;3.45;;;1.30;;
44824;SDS011;30542;47.928;2.138;2023-08-01T10:17:18;7.47;;;1.17;;
44824;SDS011;30542;47.928;2.138;2023-08-01T10:22:19;4.32;;;1.52;;
44824;SDS011;30542;47.928;2.138;2023-08-01T10:27:21;1.85;;;0.85;;
44824;SDS011;30542;47.928;2.138;2023-08-01T10:32:27;4.63;;;1.02;;
44824;SDS011;30542;47.928;2.138;2023-08-01T10:37:40;4.97;;;1.00;;
44824;SDS011;30542;47.928;2.138;2023-08-01T10:42:44;3.95;;;1.15;;
44824;SDS011;30542;47.928;2.138;2023-08-01T10:47:45;3.65;;;1.27;;
44824;SDS011;30542;47.928;2.138;2023-08-01T10:52:46;6.73;;;1.73;;
44824;SDS011;30542;47.928;2.138;2023-08-01T10:57:47;8.02;;;2.65;;
44824;SDS011;30542;47.928;2.138;2023-08-01T11:02:50;9.95;;;3.00;;
44824;SDS011;30542;47.928;2.138;2023-08-01T11:07:57;8.18;;;2.35;;
44824;SDS011;30542;47.928;2.138;2023-08-01T11:13:01;8.82;;;2.75;;
44824;SDS011;30542;47.928;2.138;2023-08-01T11:18:02;7.72;;;2.90;;
44824;SDS011;30542;47.928;2.138;2023-08-01T11:23:02;5.32;;;2.05;;
44824;SDS011;30542;47.928;2.138;2023-08-01T11:28:14;6.45;;;2.10;;
44824;SDS011;30542;47.928;2.138;2023-08-01T11:33:19;7.25;;;1.90;;
44824;SDS011;30542;47.928;2.138;2023-08-01T11:38:25;6.97;;;2.42;;
44824;SDS011;30542;47.928;2.138;2023-08-01T11:43:37;7.88;;;2.55;;
44824;SDS011;30542;47.928;2.138;2023-08-01T11:48:44;4.10;;;2.08;;
44824;SDS011;30542;47.928;2.138;2023-08-01T11:53:46;6.97;;;2.58;;
44824;SDS011;30542;47.928;2.138;2023-08-01T11:58:57;5.85;;;2.53;;
44824;SDS011;30542;47.928;2.138;2023-08-01T12:03:58;10.50;;;3.42;;
44824;SDS011;30542;47.928;2.138;2023-08-01T12:09:12;5.07;;;2.42;;
44824;SDS011;30542;47.928;2.138;2023-08-01T12:14:13;4.85;;;2.28;;
44824;SDS011;30542;47.928;2.138;2023-08-01T12:19:17;3.35;;;2.28;;
44824;SDS011;30542;47.928;2.138;2023-08-01T12:24:19;5.68;;;2.30;;
44824;SDS011;30542;47.928;2.138;2023-08-01T12:29:19;6.03;;;2.47;;
44824;SDS011;30542;47.928;2.138;2023-08-01T12:34:20;5.30;;;2.53;;
44824;SDS011;30542;47.928;2.138;2023-08-01T12:39:20;4.40;;;2.17;;
44824;SDS011;30542;47.928;2.138;2023-08-01T12:44:20;4.90;;;1.98;;
44824;SDS011;30542;47.928;2.138;2023-08-01T12:49:21;3.80;;;2.13;;
44824;SDS011;30542;47.928;2.138;2023-08-01T12:54:21;3.50;;;1.97;;
44824;SDS011;30542;47.928;2.138;2023-08-01T12:59:22;2.90;;;1.70;;
44824;SDS011;30542;47.928;2.138;2023-08-01T13:04:22;4.10;;;2.25;;
44824;SDS011;30542;47.928;2.138;2023-08-01T13:09:23;5.63;;;2.13;;
44824;SDS011;30542;47.928;2.138;2023-08-01T13:14:24;7.90;;;2.90;;
44824;SDS011;30542;47.928;2.138;2023-08-01T13:19:25;4.30;;;2.20;;
44824;SDS011;30542;47.928;2.138;2023-08-01T13:24:25;5.97;;;2.42;;
44824;SDS011;30542;47.928;2.138;2023-08-01T13:29:26;7.93;;;1.98;;
44824;SDS011;30542;47.928;2.138;2023-08-01T13:34:26;5.27;;;1.83;;
44824;SDS011;30542;47.928;2.138;2023-08-01T13:39:26;6.27;;;1.80;;
44824;SDS011;30542;47.928;2.138;2023-08-01T13:44:28;3.85;;;1.70;;
44824;SDS011;30542;47.928;2.138;2023-08-01T13:49:28;4.32;;;1.80;;
44824;SDS011;30542;47.928;2.138;2023-08-01T13:54:29;3.30;;;1.45;;
44824;SDS011;30542;47.928;2.138;2023-08-01T13:59:29;4.70;;;1.67;;
44824;SDS011;30542;47.928;2.138;2023-08-01T14:04:31;4.13;;;1.50;;
44824;SDS011;30542;47.928;2.138;2023-08-01T14:09:31;3.72;;;1.63;;
44824;SDS011;30542;47.928;2.138;2023-08-01T14:14:32;3.55;;;1.30;;
44824;SDS011;30542;47.928;2.138;2023-08-01T14:19:33;3.33;;;1.67;;
44824;SDS011;30542;47.928;2.138;2023-08-01T14:24:33;2.17;;;1.37;;
44824;SDS011;30542;47.928;2.138;2023-08-01T14:29:34;3.63;;;1.43;;
44824;SDS011;30542;47.928;2.138;2023-08-01T14:34:34;3.10;;;1.60;;
44824;SDS011;30542;47.928;2.138;2023-08-01T14:39:34;5.80;;;1.40;;
44824;SDS011;30542;47.928;2.138;2023-08-01T14:44:34;2.55;;;1.20;;
44824;SDS011;30542;47.928;2.138;2023-08-01T14:49:35;4.73;;;1.80;;
44824;SDS011;30542;47.928;2.138;2023-08-01T14:54:36;4.28;;;1.83;;
44824;SDS011;30542;47.928;2.138;2023-08-01T14:59:38;4.13;;;1.67;;
44824;SDS011;30542;47.928;2.138;2023-08-01T15:04:38;3.83;;;1.77;;
44824;SDS011;30542;47.928;2.138;2023-08-01T15:09:41;3.83;;;2.00;;
44824;SDS011;30542;47.928;2.138;2023-08-01T15:14:42;4.13;;;1.95;;
44824;SDS011;30542;47.928;2.138;2023-08-01T15:19:43;2.22;;;1.45;;
44824;SDS011;30542;47.928;2.138;2023-08-01T15:24:47;3.65;;;1.77;;
44824;SDS011;30542;47.928;2.138;2023-08-01T15:29:47;2.63;;;1.37;;
44824;SDS011;30542;47.928;2.138;2023-08-01T15:34:47;3.50;;;2.00;;
44824;SDS011;30542;47.928;2.138;2023-08-01T15:39:48;3.13;;;1.40;;
44824;SDS011;30542;47.928;2.138;2023-08-01T15:44:48;4.20;;;1.90;;
44824;SDS011;30542;47.928;2.138;2023-08-01T15:49:49;3.85;;;1.85;;
44824;SDS011;30542;47.928;2.138;2023-08-01T15:54:49;3.47;;;1.83;;
44824;SDS011;30542;47.928;2.138;2023-08-01T15:59:50;3.47;;;1.88;;
44824;SDS011;30542;47.928;2.138;2023-08-01T16:04:50;2.40;;;1.73;;
44824;SDS011;30542;47.928;2.138;2023-08-01T16:09:50;4.18;;;1.90;;
44824;SDS011;30542;47.928;2.138;2023-08-01T16:14:51;4.45;;;1.88;;
44824;SDS011;30542;47.928;2.138;2023-08-01T16:19:51;4.35;;;1.83;;
44824;SDS011;30542;47.928;2.138;2023-08-01T16:24:51;4.00;;;1.80;;
44824;SDS011;30542;47.928;2.138;2023-08-01T16:29:52;4.80;;;2.20;;
44824;SDS011;30542;47.928;2.138;2023-08-01T16:34:52;7.90;;;2.03;;
44824;SDS011;30542;47.928;2.138;2023-08-01T16:39:52;4.00;;;1.58;;
44824;SDS011;30542;47.928;2.138;2023-08-01T16:44:53;4.95;;;2.13;;
44824;SDS011;30542;47.928;2.138;2023-08-01T16:49:53;4.93;;;2.05;;
44824;SDS011;30542;47.928;2.138;2023-08-01T16:54:54;6.15;;;2.03;;
44824;SDS011;30542;47.928;2.138;2023-08-01T16:59:55;4.35;;;2.40;;
44824;SDS011;30542;47.928;2.138;2023-08-01T17:04:56;3.63;;;2.10;;
44824;SDS011;30542;47.928;2.138;2023-08-01T17:09:59;4.63;;;2.28;;
44824;SDS011;30542;47.928;2.138;2023-08-01T17:15:01;4.68;;;2.30;;
44824;SDS011;30542;47.928;2.138;2023-08-01T17:20:01;4.10;;;2.77;;
44824;SDS011;30542;47.928;2.138;2023-08-01T17:25:03;8.18;;;2.30;;
44824;SDS011;30542;47.928;2.138;2023-08-01T17:30:04;11.02;;;2.42;;
44824;SDS011;30542;47.928;2.138;2023-08-01T17:35:05;4.82;;;2.45;;
44824;SDS011;30542;47.928;2.138;2023-08-01T17:40:06;4.20;;;2.60;;
44824;SDS011;30542;47.928;2.138;2023-08-01T17:45:08;5.78;;;2.78;;
44824;SDS011;30542;47.928;2.138;2023-08-01T17:50:10;5.38;;;2.65;;
44824;SDS011;30542;47.928;2.138;2023-08-01T17:55:10;6.07;;;2.40;;
44824;SDS011;30542;47.928;2.138;2023-08-01T18:00:11;4.75;;;2.30;;
44824;SDS011;30542;47.928;2.138;2023-08-01T18:05:12;6.95;;;2.78;;
44824;SDS011;30542;47.928;2.138;2023-08-01T18:10:13;4.90;;;2.57;;
44824;SDS011;30542;47.928;2.138;2023-08-01T18:15:13;4.10;;;2.30;;
44824;SDS011;30542;47.928;2.138;2023-08-01T18:20:13;4.20;;;2.23;;
44824;SDS011;30542;47.928;2.138;2023-08-01T18:25:13;3.47;;;2.57;;
44824;SDS011;30542;47.928;2.138;2023-08-01T18:30:14;4.43;;;2.40;;
44824;SDS011;30542;47.928;2.138;2023-08-01T18:35:14;4.10;;;2.20;;
44824;SDS011;30542;47.928;2.138;2023-08-01T18:40:15;3.70;;;2.40;;
44824;SDS011;30542;47.928;2.138;2023-08-01T18:45:17;5.30;;;2.55;;
44824;SDS011;30542;47.928;2.138;2023-08-01T18:50:17;3.53;;;2.20;;
44824;SDS011;30542;47.928;2.138;2023-08-01T18:55:17;3.80;;;2.67;;
44824;SDS011;30542;47.928;2.138;2023-08-01T19:00:18;3.55;;;2.40;;
44824;SDS011;30542;47.928;2.138;2023-08-01T19:05:18;3.27;;;2.27;;
44824;SDS011;30542;47.928;2.138;2023-08-01T19:10:19;3.58;;;2.20;;
44824;SDS011;30542;47.928;2.138;2023-08-01T19:15:19;4.23;;;2.50;;
44824;SDS011;30542;47.928;2.138;2023-08-01T19:20:20;4.47;;;2.40;;
44824;SDS011;30542;47.928;2.138;2023-08-01T19:25:20;4.63;;;2.72;;
44824;SDS011;30542;47.928;2.138;2023-08-01T19:30:20;4.67;;;2.50;;
44824;SDS011;30542;47.928;2.138;2023-08-01T19:35:21;6.25;;;2.90;;
44824;SDS011;30542;47.928;2.138;2023-08-01T19:40:21;8.70;;;3.03;;
44824;SDS011;30542;47.928;2.138;2023-08-01T19:45:22;6.22;;;3.20;;
44824;SDS011;30542;47.928;2.138;2023-08-01T19:50:22;5.20;;;2.90;;
44824;SDS011;30542;47.928;2.138;2023-08-01T19:55:24;4.38;;;2.78;;
44824;SDS011;30542;47.928;2.138;2023-08-01T20:00:24;5.60;;;2.83;;
44824;SDS011;30542;47.928;2.138;2023-08-01T20:05:28;5.07;;;2.85;;
44824;SDS011;30542;47.928;2.138;2023-08-01T20:10:28;4.97;;;3.20;;
44824;SDS011;30542;47.928;2.138;2023-08-01T20:15:29;4.80;;;3.10;;
44824;SDS011;30542;47.928;2.138;2023-08-01T20:20:29;5.47;;;3.17;;
44824;SDS011;30542;47.928;2.138;2023-08-01T20:25:29;4.20;;;3.03;;
44824;SDS011;30542;47.928;2.138;2023-08-01T20:30:30;3.45;;;3.10;;
44824;SDS011;30542;47.928;2.138;2023-08-01T20:35:30;5.93;;;2.85;;
44824;SDS011;30542;47.928;2.138;2023-08-01T20:40:31;4.37;;;3.03;;
44824;SDS011;30542;47.928;2.138;2023-08-01T20:45:34;4.05;;;2.22;;
44824;SDS011;30542;47.928;2.138;2023-08-01T20:50:34;3.88;;;2.90;;
44824;SDS011;30542;47.928;2.138;2023-08-01T20:55:35;5.60;;;3.10;;
44824;SDS011;30542;47.928;2.138;2023-08-01T21:00:35;4.33;;;2.70;;
44824;SDS011;30542;47.928;2.138;2023-08-01T21:05:35;3.63;;;2.80;;
44824;SDS011;30542;47.928;2.138;2023-08-01T21:10:36;4.82;;;2.90;;
44824;SDS011;30542;47.928;2.138;2023-08-01T21:15:36;3.72;;;2.72;;
44824;SDS011;30542;47.928;2.138;2023-08-01T21:20:37;3.30;;;2.67;;
44824;SDS011;30542;47.928;2.138;2023-08-01T21:25:37;3.45;;;3.13;;
44824;SDS011;30542;47.928;2.138;2023-08-01T21:30:37;5.53;;;2.80;;
44824;SDS011;30542;47.928;2.138;2023-08-01T21:35:38;3.13;;;2.85;;
44824;SDS011;30542;47.928;2.138;2023-08-01T21:40:38;3.30;;;2.67;;
44824;SDS011;30542;47.928;2.138;2023-08-01T21:45:39;5.25;;;3.30;;
44824;SDS011;30542;47.928;2.138;2023-08-01T21:50:39;3.72;;;2.88;;
44824;SDS011;30542;47.928;2.138;2023-08-01T21:55:39;4.07;;;2.50;;
44824;SDS011;30542;47.928;2.138;2023-08-01T22:00:40;3.65;;;2.70;;
44824;SDS011;30542;47.928;2.138;2023-08-01T22:05:41;3.13;;;2.72;;
44824;SDS011;30542;47.928;2.138;2023-08-01T22:10:41;4.60;;;3.38;;
44824;SDS011;30542;47.928;2.138;2023-08-01T22:15:41;4.87;;;3.40;;
44824;SDS011;30542;47.928;2.138;2023-08-01T22:20:41;4.20;;;2.45;;
44824;SDS011;30542;47.928;2.138;2023-08-01T22:25:42;4.07;;;2.90;;
44824;SDS011;30542;47.928;2.138;2023-08-01T22:30:42;4.13;;;2.97;;
44824;SDS011;30542;47.928;2.138;2023-08-01T22:35:42;4.37;;;2.87;;
44824;SDS011;30542;47.928;2.138;2023-08-01T22:40:43;4.37;;;2.80;;
44824;SDS011;30542;47.928;2.138;2023-08-01T22:45:43;4.45;;;2.85;;
44824;SDS011;30542;47.928;2.138;2023-08-01T22:50:44;3.37;;;2.87;;
44824;SDS011;30542;47.928;2.138;2023-08-01T22:55:44;4.88;;;3.10;;
44824;SDS011;30542;47.928;2.138;2023-08-01T23:00:45;4.65;;;3.00;;
44824;SDS011;30542;47.928;2.138;2023-08-01T23:05:45;2.83;;;2.27;;
44824;SDS011;30542;47.928;2.138;2023-08-01T23:10:46;3.00;;;2.30;;
44824;SDS011;30542;47.928;2.138;2023-08-01T23:15:46;3.00;;;2.50;;
44824;SDS011;30542;47.928;2.138;2023-08-01T23:20:46;2.87;;;2.63;;
44824;SDS011;30542;47.928;2.138;2023-08-01T23:25:47;2.60;;;2.28;;
44824;SDS011;30542;47.928;2.138;2023-08-01T23:30:47;3.25;;;2.33;;
44824;SDS011;30542;47.928;2.138;2023-08-01T23:35:52;3.05;;;2.17;;
44824;SDS011;30542;47.928;2.138;2023-08-01T23:40:53;6.25;;;2.42;;
44824;SDS011;30542;47.928;2.138;2023-08-01T23:45:53;2.43;;;1.90;;
44824;SDS011;30542;47.928;2.138;2023-08-01T23:50:54;2.63;;;1.95;;
44824;SDS011;30542;47.928;2.138;2023-08-01T23:55:58;2.92;;;2.05;;
